sensor_id;sensor_type;location;lat;lon;timestamp;P1;durP1;ratioP1;P2;durP2;ratioP2
6121;SDS011;3091;51.506;7.672;2023-07-13T00:00:33;14.20;;;13.70;;
6121;SDS011;3091;51.506;7.672;2023-07-13T00:03:01;14.00;;;13.50;;
6121;SDS011;3091;51.506;7.672;2023-07-13T00:05:27;14.10;;;13.60;;
6121;SDS011;3091;51.506;7.672;2023-07-13T00:07:53;13.73;;;13.23;;
6121;SDS011;3091;51.506;7.672;2023-07-13T00:10:19;14.40;;;13.80;;
6121;SDS011;3091;51.506;7.672;2023-07-13T00:12:46;14.37;;;13.87;;
6121;SDS011;3091;51.506;7.672;2023-07-13T00:15:17;14.57;;;13.97;;
6121;SDS011;3091;51.506;7.672;2023-07-13T00:17:48;13.90;;;13.40;;
6121;SDS011;3091;51.506;7.672;2023-07-13T00:20:14;13.50;;;13.00;;
6121;SDS011;3091;51.506;7.672;2023-07-13T00:22:40;13.37;;;12.80;;
6121;SDS011;3091;51.506;7.672;2023-07-13T00:25:06;12.33;;;11.93;;
6121;SDS011;3091;51.506;7.672;2023-07-13T00:27:35;13.00;;;12.60;;
6121;SDS011;3091;51.506;7.672;2023-07-13T00:30:01;13.37;;;12.83;;
6121;SDS011;3091;51.506;7.672;2023-07-13T00:32:27;13.10;;;12.70;;
6121;SDS011;3091;51.506;7.672;2023-07-13T00:34:57;13.90;;;13.40;;
6121;SDS011;3091;51.506;7.672;2023-07-13T00:37:25;13.10;;;12.70;;
6121;SDS011;3091;51.506;7.672;2023-07-13T00:39:51;13.50;;;13.10;;
6121;SDS011;3091;51.506;7.672;2023-07-13T00:42:19;13.30;;;12.90;;
6121;SDS011;3091;51.506;7.672;2023-07-13T00:47:31;13.20;;;12.80;;
6121;SDS011;3091;51.506;7.672;2023-07-13T00:49:58;14.70;;;14.10;;
6121;SDS011;3091;51.506;7.672;2023-07-13T00:52:24;14.57;;;14.07;;
6121;SDS011;3091;51.506;7.672;2023-07-13T00:54:50;13.97;;;13.47;;
6121;SDS011;3091;51.506;7.672;2023-07-13T00:57:17;14.10;;;13.60;;
6121;SDS011;3091;51.506;7.672;2023-07-13T00:59:46;14.20;;;13.70;;
6121;SDS011;3091;51.506;7.672;2023-07-13T01:02:13;14.10;;;13.60;;
6121;SDS011;3091;51.506;7.672;2023-07-13T01:04:39;14.60;;;14.00;;
6121;SDS011;3091;51.506;7.672;2023-07-13T01:07:06;14.17;;;13.67;;
6121;SDS011;3091;51.506;7.672;2023-07-13T01:09:32;14.27;;;13.77;;
6121;SDS011;3091;51.506;7.672;2023-07-13T01:11:58;14.30;;;13.80;;
6121;SDS011;3091;51.506;7.672;2023-07-13T01:14:24;14.13;;;13.63;;
6121;SDS011;3091;51.506;7.672;2023-07-13T01:16:50;14.33;;;13.83;;
6121;SDS011;3091;51.506;7.672;2023-07-13T01:19:33;13.87;;;13.37;;
6121;SDS011;3091;51.506;7.672;2023-07-13T01:22:19;13.90;;;13.40;;
6121;SDS011;3091;51.506;7.672;2023-07-13T01:24:50;14.00;;;13.50;;
6121;SDS011;3091;51.506;7.672;2023-07-13T01:27:19;14.00;;;13.50;;
6121;SDS011;3091;51.506;7.672;2023-07-13T01:29:46;14.00;;;13.50;;
6121;SDS011;3091;51.506;7.672;2023-07-13T01:32:16;14.50;;;14.00;;
6121;SDS011;3091;51.506;7.672;2023-07-13T01:34:46;14.30;;;13.80;;
6121;SDS011;3091;51.506;7.672;2023-07-13T01:37:13;14.73;;;14.23;;
6121;SDS011;3091;51.506;7.672;2023-07-13T01:39:39;14.50;;;14.00;;
6121;SDS011;3091;51.506;7.672;2023-07-13T01:42:05;14.37;;;13.87;;
6121;SDS011;3091;51.506;7.672;2023-07-13T01:44:31;14.37;;;13.87;;
6121;SDS011;3091;51.506;7.672;2023-07-13T01:46:57;14.90;;;14.40;;
6121;SDS011;3091;51.506;7.672;2023-07-13T01:49:23;14.90;;;14.30;;
6121;SDS011;3091;51.506;7.672;2023-07-13T01:51:49;14.97;;;14.37;;
6121;SDS011;3091;51.506;7.672;2023-07-13T01:54:18;15.20;;;14.60;;
6121;SDS011;3091;51.506;7.672;2023-07-13T01:56:44;15.33;;;14.57;;
6121;SDS011;3091;51.506;7.672;2023-07-13T01:59:10;15.20;;;14.60;;
6121;SDS011;3091;51.506;7.672;2023-07-13T02:01:36;14.83;;;14.33;;
6121;SDS011;3091;51.506;7.672;2023-07-13T02:04:02;14.97;;;14.37;;
6121;SDS011;3091;51.506;7.672;2023-07-13T02:06:28;15.33;;;14.73;;
6121;SDS011;3091;51.506;7.672;2023-07-13T02:08:57;15.30;;;14.70;;
6121;SDS011;3091;51.506;7.672;2023-07-13T02:11:23;15.37;;;14.77;;
6121;SDS011;3091;51.506;7.672;2023-07-13T02:13:50;15.60;;;15.00;;
6121;SDS011;3091;51.506;7.672;2023-07-13T02:16:16;15.07;;;14.47;;
6121;SDS011;3091;51.506;7.672;2023-07-13T02:18:42;15.50;;;14.90;;
6121;SDS011;3091;51.506;7.672;2023-07-13T02:21:10;15.20;;;14.60;;
6121;SDS011;3091;51.506;7.672;2023-07-13T02:23:36;15.80;;;15.20;;
6121;SDS011;3091;51.506;7.672;2023-07-13T02:26:03;15.60;;;15.00;;
6121;SDS011;3091;51.506;7.672;2023-07-13T02:28:29;15.50;;;15.00;;
6121;SDS011;3091;51.506;7.672;2023-07-13T02:30:55;14.40;;;13.90;;
6121;SDS011;3091;51.506;7.672;2023-07-13T02:33:21;14.63;;;14.13;;
6121;SDS011;3091;51.506;7.672;2023-07-13T02:36:05;14.40;;;13.90;;
6121;SDS011;3091;51.506;7.672;2023-07-13T02:38:34;14.80;;;14.30;;
6121;SDS011;3091;51.506;7.672;2023-07-13T02:41:01;15.00;;;14.30;;
6121;SDS011;3091;51.506;7.672;2023-07-13T02:43:27;14.60;;;14.10;;
6121;SDS011;3091;51.506;7.672;2023-07-13T02:45:54;14.60;;;14.10;;
6121;SDS011;3091;51.506;7.672;2023-07-13T02:48:20;17.20;;;15.67;;
6121;SDS011;3091;51.506;7.672;2023-07-13T02:50:46;15.10;;;14.60;;
6121;SDS011;3091;51.506;7.672;2023-07-13T02:53:12;15.97;;;15.37;;
6121;SDS011;3091;51.506;7.672;2023-07-13T02:55:38;16.20;;;15.60;;
6121;SDS011;3091;51.506;7.672;2023-07-13T02:58:06;16.20;;;15.60;;
6121;SDS011;3091;51.506;7.672;2023-07-13T03:00:32;15.70;;;15.10;;
6121;SDS011;3091;51.506;7.672;2023-07-13T03:02:58;15.40;;;14.80;;
6121;SDS011;3091;51.506;7.672;2023-07-13T03:05:31;15.67;;;15.07;;
6121;SDS011;3091;51.506;7.672;2023-07-13T03:07:57;15.40;;;14.80;;
6121;SDS011;3091;51.506;7.672;2023-07-13T03:10:23;15.77;;;15.17;;
6121;SDS011;3091;51.506;7.672;2023-07-13T03:12:49;16.30;;;15.70;;
6121;SDS011;3091;51.506;7.672;2023-07-13T03:15:15;16.10;;;15.50;;
6121;SDS011;3091;51.506;7.672;2023-07-13T03:17:41;15.20;;;14.70;;
6121;SDS011;3091;51.506;7.672;2023-07-13T03:20:07;15.80;;;15.20;;
6121;SDS011;3091;51.506;7.672;2023-07-13T03:22:34;16.00;;;15.40;;
6121;SDS011;3091;51.506;7.672;2023-07-13T03:25:00;15.80;;;15.20;;
6121;SDS011;3091;51.506;7.672;2023-07-13T03:27:26;15.70;;;15.10;;
6121;SDS011;3091;51.506;7.672;2023-07-13T03:29:52;15.33;;;14.83;;
6121;SDS011;3091;51.506;7.672;2023-07-13T03:32:18;16.10;;;15.50;;
6121;SDS011;3091;51.506;7.672;2023-07-13T03:34:44;16.40;;;15.80;;
6121;SDS011;3091;51.506;7.672;2023-07-13T03:37:10;15.70;;;15.10;;
6121;SDS011;3091;51.506;7.672;2023-07-13T03:39:36;15.43;;;14.90;;
6121;SDS011;3091;51.506;7.672;2023-07-13T03:42:02;16.40;;;15.80;;
6121;SDS011;3091;51.506;7.672;2023-07-13T03:44:30;16.10;;;15.50;;
6121;SDS011;3091;51.506;7.672;2023-07-13T03:46:56;16.00;;;15.40;;
6121;SDS011;3091;51.506;7.672;2023-07-13T03:49:22;16.90;;;16.10;;
6121;SDS011;3091;51.506;7.672;2023-07-13T03:51:48;16.07;;;15.40;;
6121;SDS011;3091;51.506;7.672;2023-07-13T03:54:14;17.30;;;16.30;;
6121;SDS011;3091;51.506;7.672;2023-07-13T03:56:40;16.00;;;15.40;;
6121;SDS011;3091;51.506;7.672;2023-07-13T03:59:09;15.93;;;15.33;;
6121;SDS011;3091;51.506;7.672;2023-07-13T04:01:35;16.00;;;15.40;;
6121;SDS011;3091;51.506;7.672;2023-07-13T04:04:01;16.87;;;16.17;;
6121;SDS011;3091;51.506;7.672;2023-07-13T04:06:28;16.40;;;15.80;;
6121;SDS011;3091;51.506;7.672;2023-07-13T04:08:55;16.20;;;15.60;;
6121;SDS011;3091;51.506;7.672;2023-07-13T04:11:29;16.13;;;15.53;;
6121;SDS011;3091;51.506;7.672;2023-07-13T04:13:56;16.60;;;16.00;;
6121;SDS011;3091;51.506;7.672;2023-07-13T04:16:25;16.60;;;16.00;;
6121;SDS011;3091;51.506;7.672;2023-07-13T04:18:51;16.50;;;15.90;;
6121;SDS011;3091;51.506;7.672;2023-07-13T04:21:19;16.40;;;15.80;;
6121;SDS011;3091;51.506;7.672;2023-07-13T04:23:46;17.10;;;16.40;;
6121;SDS011;3091;51.506;7.672;2023-07-13T04:26:12;16.10;;;15.50;;
6121;SDS011;3091;51.506;7.672;2023-07-13T04:28:38;16.30;;;15.70;;
6121;SDS011;3091;51.506;7.672;2023-07-13T04:31:04;18.33;;;17.43;;
6121;SDS011;3091;51.506;7.672;2023-07-13T04:33:30;15.30;;;14.80;;
6121;SDS011;3091;51.506;7.672;2023-07-13T04:35:56;15.80;;;15.20;;
6121;SDS011;3091;51.506;7.672;2023-07-13T04:38:24;15.37;;;14.87;;
6121;SDS011;3091;51.506;7.672;2023-07-13T04:40:52;15.03;;;14.50;;
6121;SDS011;3091;51.506;7.672;2023-07-13T04:43:18;15.03;;;14.53;;
6121;SDS011;3091;51.506;7.672;2023-07-13T04:45:44;15.27;;;14.77;;
6121;SDS011;3091;51.506;7.672;2023-07-13T04:48:10;15.03;;;14.43;;
6121;SDS011;3091;51.506;7.672;2023-07-13T04:50:37;14.90;;;14.40;;
6121;SDS011;3091;51.506;7.672;2023-07-13T04:53:03;15.23;;;14.63;;
6121;SDS011;3091;51.506;7.672;2023-07-13T04:55:29;14.57;;;14.07;;
6121;SDS011;3091;51.506;7.672;2023-07-13T04:57:56;14.70;;;14.00;;
6121;SDS011;3091;51.506;7.672;2023-07-13T05:00:23;14.80;;;14.30;;
6121;SDS011;3091;51.506;7.672;2023-07-13T05:02:49;14.17;;;13.67;;
6121;SDS011;3091;51.506;7.672;2023-07-13T05:05:18;14.80;;;14.20;;
6121;SDS011;3091;51.506;7.672;2023-07-13T05:07:44;14.30;;;13.80;;
6121;SDS011;3091;51.506;7.672;2023-07-13T05:10:10;14.30;;;13.80;;
6121;SDS011;3091;51.506;7.672;2023-07-13T05:12:36;14.50;;;14.00;;
6121;SDS011;3091;51.506;7.672;2023-07-13T05:15:03;14.20;;;13.63;;
6121;SDS011;3091;51.506;7.672;2023-07-13T05:17:31;14.50;;;14.00;;
6121;SDS011;3091;51.506;7.672;2023-07-13T05:19:58;14.60;;;14.00;;
6121;SDS011;3091;51.506;7.672;2023-07-13T05:22:24;14.20;;;13.70;;
6121;SDS011;3091;51.506;7.672;2023-07-13T05:24:50;13.83;;;13.33;;
6121;SDS011;3091;51.506;7.672;2023-07-13T05:27:16;14.20;;;13.70;;
6121;SDS011;3091;51.506;7.672;2023-07-13T05:29:44;14.40;;;13.80;;
6121;SDS011;3091;51.506;7.672;2023-07-13T05:32:10;14.40;;;13.90;;
6121;SDS011;3091;51.506;7.672;2023-07-13T05:34:36;15.63;;;14.83;;
6121;SDS011;3091;51.506;7.672;2023-07-13T05:37:02;14.73;;;14.13;;
6121;SDS011;3091;51.506;7.672;2023-07-13T05:39:28;14.43;;;13.83;;
6121;SDS011;3091;51.506;7.672;2023-07-13T05:41:54;14.47;;;13.97;;
6121;SDS011;3091;51.506;7.672;2023-07-13T05:44:20;14.30;;;13.80;;
6121;SDS011;3091;51.506;7.672;2023-07-13T05:46:46;14.20;;;13.70;;
6121;SDS011;3091;51.506;7.672;2023-07-13T05:49:12;14.60;;;14.00;;
6121;SDS011;3091;51.506;7.672;2023-07-13T05:51:38;13.97;;;13.47;;
6121;SDS011;3091;51.506;7.672;2023-07-13T05:54:04;14.20;;;13.70;;
6121;SDS011;3091;51.506;7.672;2023-07-13T05:56:30;15.33;;;14.00;;
6121;SDS011;3091;51.506;7.672;2023-07-13T05:58:56;15.10;;;14.20;;
6121;SDS011;3091;51.506;7.672;2023-07-13T06:01:22;13.83;;;13.33;;
6121;SDS011;3091;51.506;7.672;2023-07-13T06:03:49;14.60;;;14.10;;
6121;SDS011;3091;51.506;7.672;2023-07-13T06:06:15;14.00;;;13.50;;
6121;SDS011;3091;51.506;7.672;2023-07-13T06:08:41;13.70;;;13.20;;
6121;SDS011;3091;51.506;7.672;2023-07-13T06:11:10;13.80;;;13.30;;
6121;SDS011;3091;51.506;7.672;2023-07-13T06:13:38;14.00;;;13.50;;
6121;SDS011;3091;51.506;7.672;2023-07-13T06:16:04;13.70;;;13.20;;
6121;SDS011;3091;51.506;7.672;2023-07-13T06:18:31;13.80;;;13.30;;
6121;SDS011;3091;51.506;7.672;2023-07-13T06:20:57;12.90;;;12.50;;
6121;SDS011;3091;51.506;7.672;2023-07-13T06:23:23;13.30;;;12.90;;
6121;SDS011;3091;51.506;7.672;2023-07-13T06:25:50;14.10;;;13.60;;
6121;SDS011;3091;51.506;7.672;2023-07-13T06:28:16;14.90;;;14.37;;
6121;SDS011;3091;51.506;7.672;2023-07-13T06:30:42;14.13;;;13.63;;
6121;SDS011;3091;51.506;7.672;2023-07-13T06:33:08;14.60;;;13.97;;
6121;SDS011;3091;51.506;7.672;2023-07-13T06:35:34;14.87;;;14.27;;
6121;SDS011;3091;51.506;7.672;2023-07-13T06:38:02;14.03;;;13.53;;
6121;SDS011;3091;51.506;7.672;2023-07-13T06:40:29;16.73;;;15.03;;
6121;SDS011;3091;51.506;7.672;2023-07-13T06:42:55;14.50;;;14.00;;
6121;SDS011;3091;51.506;7.672;2023-07-13T06:45:24;13.63;;;13.13;;
6121;SDS011;3091;51.506;7.672;2023-07-13T06:47:50;13.60;;;13.10;;
6121;SDS011;3091;51.506;7.672;2023-07-13T06:50:16;13.50;;;13.00;;
6121;SDS011;3091;51.506;7.672;2023-07-13T06:52:42;13.57;;;12.90;;
6121;SDS011;3091;51.506;7.672;2023-07-13T06:55:08;13.70;;;13.20;;
6121;SDS011;3091;51.506;7.672;2023-07-13T06:57:34;13.40;;;12.90;;
6121;SDS011;3091;51.506;7.672;2023-07-13T07:00:00;14.20;;;13.60;;
6121;SDS011;3091;51.506;7.672;2023-07-13T07:02:26;14.17;;;13.67;;
6121;SDS011;3091;51.506;7.672;2023-07-13T07:04:52;13.80;;;13.30;;
6121;SDS011;3091;51.506;7.672;2023-07-13T07:07:19;13.90;;;13.40;;
6121;SDS011;3091;51.506;7.672;2023-07-13T07:09:45;13.73;;;13.23;;
6121;SDS011;3091;51.506;7.672;2023-07-13T07:12:11;15.23;;;14.30;;
6121;SDS011;3091;51.506;7.672;2023-07-13T07:14:37;14.10;;;13.60;;
6121;SDS011;3091;51.506;7.672;2023-07-13T07:17:03;14.00;;;13.50;;
6121;SDS011;3091;51.506;7.672;2023-07-13T07:19:29;14.00;;;13.50;;
6121;SDS011;3091;51.506;7.672;2023-07-13T07:21:56;14.67;;;13.97;;
6121;SDS011;3091;51.506;7.672;2023-07-13T07:24:22;14.27;;;13.77;;
6121;SDS011;3091;51.506;7.672;2023-07-13T07:26:48;15.10;;;14.40;;
6121;SDS011;3091;51.506;7.672;2023-07-13T07:29:14;13.00;;;12.50;;
6121;SDS011;3091;51.506;7.672;2023-07-13T07:31:40;13.40;;;12.90;;
6121;SDS011;3091;51.506;7.672;2023-07-13T07:34:08;14.00;;;13.40;;
6121;SDS011;3091;51.506;7.672;2023-07-13T07:36:34;14.70;;;14.20;;
6121;SDS011;3091;51.506;7.672;2023-07-13T07:39:00;13.20;;;12.70;;
6121;SDS011;3091;51.506;7.672;2023-07-13T07:41:26;13.90;;;13.40;;
6121;SDS011;3091;51.506;7.672;2023-07-13T07:43:52;14.77;;;14.17;;
6121;SDS011;3091;51.506;7.672;2023-07-13T07:46:18;13.90;;;13.40;;
6121;SDS011;3091;51.506;7.672;2023-07-13T07:48:44;14.30;;;13.80;;
6121;SDS011;3091;51.506;7.672;2023-07-13T07:51:11;15.40;;;14.43;;
6121;SDS011;3091;51.506;7.672;2023-07-13T07:53:37;14.07;;;13.47;;
6121;SDS011;3091;51.506;7.672;2023-07-13T07:56:03;14.20;;;13.70;;
6121;SDS011;3091;51.506;7.672;2023-07-13T07:58:29;14.30;;;13.60;;
6121;SDS011;3091;51.506;7.672;2023-07-13T08:01:02;13.90;;;13.40;;
6121;SDS011;3091;51.506;7.672;2023-07-13T08:03:28;13.97;;;13.47;;
6121;SDS011;3091;51.506;7.672;2023-07-13T08:05:54;13.90;;;13.40;;
6121;SDS011;3091;51.506;7.672;2023-07-13T08:08:20;13.60;;;13.10;;
6121;SDS011;3091;51.506;7.672;2023-07-13T08:10:48;14.37;;;13.77;;
6121;SDS011;3091;51.506;7.672;2023-07-13T08:13:14;14.20;;;13.60;;
6121;SDS011;3091;51.506;7.672;2023-07-13T08:15:40;14.40;;;13.87;;
6121;SDS011;3091;51.506;7.672;2023-07-13T08:18:06;15.30;;;14.60;;
6121;SDS011;3091;51.506;7.672;2023-07-13T08:20:36;15.20;;;14.60;;
6121;SDS011;3091;51.506;7.672;2023-07-13T08:23:03;14.47;;;13.97;;
6121;SDS011;3091;51.506;7.672;2023-07-13T08:25:29;14.10;;;13.60;;
6121;SDS011;3091;51.506;7.672;2023-07-13T08:27:57;14.93;;;14.33;;
6121;SDS011;3091;51.506;7.672;2023-07-13T08:30:23;14.80;;;14.30;;
6121;SDS011;3091;51.506;7.672;2023-07-13T08:32:49;14.70;;;14.20;;
6121;SDS011;3091;51.506;7.672;2023-07-13T08:35:15;14.30;;;13.80;;
6121;SDS011;3091;51.506;7.672;2023-07-13T08:37:42;14.87;;;14.27;;
6121;SDS011;3091;51.506;7.672;2023-07-13T08:40:08;14.73;;;14.13;;
6121;SDS011;3091;51.506;7.672;2023-07-13T08:42:39;13.90;;;13.40;;
6121;SDS011;3091;51.506;7.672;2023-07-13T08:45:13;14.27;;;13.57;;
6121;SDS011;3091;51.506;7.672;2023-07-13T08:47:44;14.50;;;14.00;;
6121;SDS011;3091;51.506;7.672;2023-07-13T08:50:15;14.23;;;13.73;;
6121;SDS011;3091;51.506;7.672;2023-07-13T08:52:43;14.00;;;13.50;;
6121;SDS011;3091;51.506;7.672;2023-07-13T08:55:20;15.30;;;14.60;;
6121;SDS011;3091;51.506;7.672;2023-07-13T08:57:49;14.20;;;13.50;;
6121;SDS011;3091;51.506;7.672;2023-07-13T09:00:17;14.30;;;13.80;;
6121;SDS011;3091;51.506;7.672;2023-07-13T09:02:47;13.40;;;12.90;;
6121;SDS011;3091;51.506;7.672;2023-07-13T09:05:22;13.70;;;13.20;;
6121;SDS011;3091;51.506;7.672;2023-07-13T09:10:42;13.77;;;13.27;;
6121;SDS011;3091;51.506;7.672;2023-07-13T09:13:20;13.60;;;13.10;;
6121;SDS011;3091;51.506;7.672;2023-07-13T09:15:50;13.80;;;13.30;;
6121;SDS011;3091;51.506;7.672;2023-07-13T09:18:18;14.47;;;13.97;;
6121;SDS011;3091;51.506;7.672;2023-07-13T09:20:54;13.43;;;12.93;;
6121;SDS011;3091;51.506;7.672;2023-07-13T09:23:23;13.80;;;13.30;;
6121;SDS011;3091;51.506;7.672;2023-07-13T09:25:53;13.90;;;13.40;;
6121;SDS011;3091;51.506;7.672;2023-07-13T09:28:24;14.10;;;13.60;;
6121;SDS011;3091;51.506;7.672;2023-07-13T09:30:56;14.80;;;14.20;;
6121;SDS011;3091;51.506;7.672;2023-07-13T09:33:24;14.03;;;13.53;;
6121;SDS011;3091;51.506;7.672;2023-07-13T09:35:54;14.83;;;14.10;;
6121;SDS011;3091;51.506;7.672;2023-07-13T09:38:21;14.70;;;14.10;;
6121;SDS011;3091;51.506;7.672;2023-07-13T09:43:15;14.63;;;14.07;;
6121;SDS011;3091;51.506;7.672;2023-07-13T09:45:41;14.50;;;14.00;;
6121;SDS011;3091;51.506;7.672;2023-07-13T09:48:11;15.47;;;14.67;;
6121;SDS011;3091;51.506;7.672;2023-07-13T09:50:38;15.20;;;14.60;;
6121;SDS011;3091;51.506;7.672;2023-07-13T09:53:04;14.80;;;14.20;;
6121;SDS011;3091;51.506;7.672;2023-07-13T09:55:40;14.20;;;13.60;;
6121;SDS011;3091;51.506;7.672;2023-07-13T10:00:38;15.30;;;14.70;;
6121;SDS011;3091;51.506;7.672;2023-07-13T10:05:38;14.23;;;13.60;;
6121;SDS011;3091;51.506;7.672;2023-07-13T10:08:04;13.80;;;13.30;;
6121;SDS011;3091;51.506;7.672;2023-07-13T10:10:32;13.23;;;12.73;;
6121;SDS011;3091;51.506;7.672;2023-07-13T10:13:00;15.17;;;14.53;;
6121;SDS011;3091;51.506;7.672;2023-07-13T10:15:29;15.30;;;14.70;;
6121;SDS011;3091;51.506;7.672;2023-07-13T10:17:58;14.73;;;14.00;;
6121;SDS011;3091;51.506;7.672;2023-07-13T10:20:24;14.73;;;14.20;;
6121;SDS011;3091;51.506;7.672;2023-07-13T10:25:26;15.20;;;14.60;;
6121;SDS011;3091;51.506;7.672;2023-07-13T10:27:54;14.00;;;13.50;;
6121;SDS011;3091;51.506;7.672;2023-07-13T10:32:50;14.30;;;13.80;;
6121;SDS011;3091;51.506;7.672;2023-07-13T10:35:20;13.87;;;13.03;;
6121;SDS011;3091;51.506;7.672;2023-07-13T10:38:00;12.80;;;12.40;;
6121;SDS011;3091;51.506;7.672;2023-07-13T10:40:42;12.93;;;12.50;;
6121;SDS011;3091;51.506;7.672;2023-07-13T10:43:14;13.83;;;13.33;;
6121;SDS011;3091;51.506;7.672;2023-07-13T10:45:42;14.00;;;13.47;;
6121;SDS011;3091;51.506;7.672;2023-07-13T10:48:11;14.47;;;13.90;;
6121;SDS011;3091;51.506;7.672;2023-07-13T10:50:40;14.60;;;13.90;;
6121;SDS011;3091;51.506;7.672;2023-07-13T10:58:19;14.00;;;13.50;;
6121;SDS011;3091;51.506;7.672;2023-07-13T11:00:46;14.20;;;13.70;;
6121;SDS011;3091;51.506;7.672;2023-07-13T11:03:14;13.70;;;13.20;;
6121;SDS011;3091;51.506;7.672;2023-07-13T11:05:40;12.80;;;12.30;;
6121;SDS011;3091;51.506;7.672;2023-07-13T11:08:18;12.47;;;12.07;;
6121;SDS011;3091;51.506;7.672;2023-07-13T11:13:35;13.70;;;13.20;;
6121;SDS011;3091;51.506;7.672;2023-07-13T11:15:57;14.10;;;13.60;;
6121;SDS011;3091;51.506;7.672;2023-07-13T11:18:24;15.43;;;14.10;;
6121;SDS011;3091;51.506;7.672;2023-07-13T11:20:50;14.13;;;13.40;;
6121;SDS011;3091;51.506;7.672;2023-07-13T11:25:43;14.00;;;13.50;;
6121;SDS011;3091;51.506;7.672;2023-07-13T11:30:45;14.57;;;13.97;;
6121;SDS011;3091;51.506;7.672;2023-07-13T11:38:28;13.90;;;13.40;;
6121;SDS011;3091;51.506;7.672;2023-07-13T11:40:55;14.60;;;14.00;;
6121;SDS011;3091;51.506;7.672;2023-07-13T11:43:26;14.63;;;14.00;;
6121;SDS011;3091;51.506;7.672;2023-07-13T11:45:54;14.43;;;13.90;;
6121;SDS011;3091;51.506;7.672;2023-07-13T11:48:28;13.80;;;13.30;;
6121;SDS011;3091;51.506;7.672;2023-07-13T11:50:55;14.40;;;13.90;;
6121;SDS011;3091;51.506;7.672;2023-07-13T11:53:22;13.70;;;13.10;;
6121;SDS011;3091;51.506;7.672;2023-07-13T11:55:48;13.30;;;12.80;;
6121;SDS011;3091;51.506;7.672;2023-07-13T11:58:16;15.37;;;14.30;;
6121;SDS011;3091;51.506;7.672;2023-07-13T12:00:43;13.67;;;13.17;;
6121;SDS011;3091;51.506;7.672;2023-07-13T12:03:10;14.03;;;13.53;;
6121;SDS011;3091;51.506;7.672;2023-07-13T12:05:39;14.50;;;14.00;;
6121;SDS011;3091;51.506;7.672;2023-07-13T12:08:22;15.00;;;14.40;;
6121;SDS011;3091;51.506;7.672;2023-07-13T12:10:48;14.60;;;14.00;;
6121;SDS011;3091;51.506;7.672;2023-07-13T12:13:21;14.00;;;13.50;;
6121;SDS011;3091;51.506;7.672;2023-07-13T12:15:47;14.60;;;14.10;;
6121;SDS011;3091;51.506;7.672;2023-07-13T12:18:23;15.10;;;14.50;;
6121;SDS011;3091;51.506;7.672;2023-07-13T12:20:55;14.47;;;13.93;;
6121;SDS011;3091;51.506;7.672;2023-07-13T12:25:50;14.50;;;14.00;;
6121;SDS011;3091;51.506;7.672;2023-07-13T12:28:20;14.30;;;13.80;;
6121;SDS011;3091;51.506;7.672;2023-07-13T12:30:49;14.40;;;13.90;;
6121;SDS011;3091;51.506;7.672;2023-07-13T12:33:15;15.40;;;14.43;;
6121;SDS011;3091;51.506;7.672;2023-07-13T12:35:46;14.20;;;13.70;;
6121;SDS011;3091;51.506;7.672;2023-07-13T12:38:12;14.50;;;14.00;;
6121;SDS011;3091;51.506;7.672;2023-07-13T12:40:40;14.50;;;13.90;;
6121;SDS011;3091;51.506;7.672;2023-07-13T12:43:11;13.90;;;13.40;;
6121;SDS011;3091;51.506;7.672;2023-07-13T12:45:37;13.80;;;13.30;;
6121;SDS011;3091;51.506;7.672;2023-07-13T12:48:05;14.30;;;13.80;;
6121;SDS011;3091;51.506;7.672;2023-07-13T12:50:36;14.10;;;13.60;;
6121;SDS011;3091;51.506;7.672;2023-07-13T12:53:03;15.07;;;14.40;;
6121;SDS011;3091;51.506;7.672;2023-07-13T12:55:37;13.87;;;13.37;;
6121;SDS011;3091;51.506;7.672;2023-07-13T12:58:06;14.17;;;13.67;;
6121;SDS011;3091;51.506;7.672;2023-07-13T13:00:33;14.10;;;13.60;;
6121;SDS011;3091;51.506;7.672;2023-07-13T13:03:07;13.73;;;13.23;;
6121;SDS011;3091;51.506;7.672;2023-07-13T13:05:33;14.00;;;13.50;;
6121;SDS011;3091;51.506;7.672;2023-07-13T13:07:59;14.00;;;13.50;;
6121;SDS011;3091;51.506;7.672;2023-07-13T13:10:25;14.10;;;13.50;;
6121;SDS011;3091;51.506;7.672;2023-07-13T13:12:51;13.60;;;13.10;;
6121;SDS011;3091;51.506;7.672;2023-07-13T13:15:18;13.80;;;13.30;;
6121;SDS011;3091;51.506;7.672;2023-07-13T13:17:44;13.73;;;13.23;;
6121;SDS011;3091;51.506;7.672;2023-07-13T13:20:17;13.37;;;12.87;;
6121;SDS011;3091;51.506;7.672;2023-07-13T13:22:43;13.27;;;12.77;;
6121;SDS011;3091;51.506;7.672;2023-07-13T13:25:10;12.50;;;12.10;;
6121;SDS011;3091;51.506;7.672;2023-07-13T13:27:36;12.60;;;12.20;;
6121;SDS011;3091;51.506;7.672;2023-07-13T13:30:02;13.40;;;12.90;;
6121;SDS011;3091;51.506;7.672;2023-07-13T13:32:28;14.67;;;13.97;;
6121;SDS011;3091;51.506;7.672;2023-07-13T13:34:54;14.37;;;13.70;;
6121;SDS011;3091;51.506;7.672;2023-07-13T13:37:21;13.90;;;13.40;;
6121;SDS011;3091;51.506;7.672;2023-07-13T13:39:48;14.00;;;13.50;;
6121;SDS011;3091;51.506;7.672;2023-07-13T13:42:14;14.03;;;13.53;;
6121;SDS011;3091;51.506;7.672;2023-07-13T13:44:40;14.80;;;14.20;;
6121;SDS011;3091;51.506;7.672;2023-07-13T13:47:07;14.03;;;13.53;;
6121;SDS011;3091;51.506;7.672;2023-07-13T13:49:36;14.37;;;13.30;;
6121;SDS011;3091;51.506;7.672;2023-07-13T13:52:02;13.93;;;13.43;;
6121;SDS011;3091;51.506;7.672;2023-07-13T13:54:28;14.23;;;13.63;;
6121;SDS011;3091;51.506;7.672;2023-07-13T13:56:55;13.50;;;13.00;;
6121;SDS011;3091;51.506;7.672;2023-07-13T13:59:22;14.30;;;13.70;;
6121;SDS011;3091;51.506;7.672;2023-07-13T14:01:48;13.60;;;13.10;;
6121;SDS011;3091;51.506;7.672;2023-07-13T14:04:16;14.30;;;13.70;;
6121;SDS011;3091;51.506;7.672;2023-07-13T14:06:43;14.13;;;13.63;;
6121;SDS011;3091;51.506;7.672;2023-07-13T14:09:11;35.63;;;32.83;;
6121;SDS011;3091;51.506;7.672;2023-07-13T14:11:55;52.03;;;48.43;;
6121;SDS011;3091;51.506;7.672;2023-07-13T14:14:22;81.30;;;76.80;;
6121;SDS011;3091;51.506;7.672;2023-07-13T14:16:51;95.50;;;90.70;;
6121;SDS011;3091;51.506;7.672;2023-07-13T14:19:21;126.80;;;121.00;;
6121;SDS011;3091;51.506;7.672;2023-07-13T14:21:48;145.53;;;139.23;;
6121;SDS011;3091;51.506;7.672;2023-07-13T14:24:14;144.97;;;138.67;;
6121;SDS011;3091;51.506;7.672;2023-07-13T14:26:41;146.73;;;140.33;;
6121;SDS011;3091;51.506;7.672;2023-07-13T14:29:14;140.40;;;134.40;;
6121;SDS011;3091;51.506;7.672;2023-07-13T14:31:42;146.30;;;139.90;;
6121;SDS011;3091;51.506;7.672;2023-07-13T14:34:11;152.97;;;146.57;;
6121;SDS011;3091;51.506;7.672;2023-07-13T14:36:42;153.37;;;146.97;;
6121;SDS011;3091;51.506;7.672;2023-07-13T14:39:16;153.67;;;147.43;;
6121;SDS011;3091;51.506;7.672;2023-07-13T14:41:43;114.80;;;109.87;;
6121;SDS011;3091;51.506;7.672;2023-07-13T14:44:12;74.40;;;70.80;;
6121;SDS011;3091;51.506;7.672;2023-07-13T14:46:39;112.30;;;107.80;;
6121;SDS011;3091;51.506;7.672;2023-07-13T14:51:37;33.80;;;32.10;;
6121;SDS011;3091;51.506;7.672;2023-07-13T14:54:04;26.80;;;25.50;;
6121;SDS011;3091;51.506;7.672;2023-07-13T14:56:30;23.97;;;22.87;;
6121;SDS011;3091;51.506;7.672;2023-07-13T14:58:56;21.20;;;20.30;;
6121;SDS011;3091;51.506;7.672;2023-07-13T15:01:23;19.17;;;18.37;;
6121;SDS011;3091;51.506;7.672;2023-07-13T15:03:50;17.93;;;17.13;;
6121;SDS011;3091;51.506;7.672;2023-07-13T15:06:19;17.23;;;16.53;;
6121;SDS011;3091;51.506;7.672;2023-07-13T15:08:46;16.70;;;16.00;;
6121;SDS011;3091;51.506;7.672;2023-07-13T15:11:13;16.90;;;16.20;;
6121;SDS011;3091;51.506;7.672;2023-07-13T15:13:40;16.73;;;16.03;;
6121;SDS011;3091;51.506;7.672;2023-07-13T15:16:22;16.60;;;15.90;;
6121;SDS011;3091;51.506;7.672;2023-07-13T15:18:49;29.30;;;27.80;;
6121;SDS011;3091;51.506;7.672;2023-07-13T15:21:20;41.30;;;38.60;;
6121;SDS011;3091;51.506;7.672;2023-07-13T15:23:46;50.90;;;47.80;;
6121;SDS011;3091;51.506;7.672;2023-07-13T15:26:13;98.40;;;93.70;;
6121;SDS011;3091;51.506;7.672;2023-07-13T15:28:40;105.13;;;100.33;;